sensor_id;sensor_type;location;lat;lon;timestamp;temperature;humidity
21772;DHT22;11047;47.904;8.110;2024-01-15T00:01:29;-2.10;99.90
21772;DHT22;11047;47.904;8.110;2024-01-15T00:03:56;-2.20;99.90
21772;DHT22;11047;47.904;8.110;2024-01-15T00:06:22;-1.70;99.90
21772;DHT22;11047;47.904;8.110;2024-01-15T00:08:49;-2.20;99.90
21772;DHT22;11047;47.904;8.110;2024-01-15T00:11:16;-2.30;99.90
21772;DHT22;11047;47.904;8.110;2024-01-15T00:13:43;-1.70;99.90
21772;DHT22;11047;47.904;8.110;2024-01-15T00:16:11;-2.40;99.90
21772;DHT22;11047;47.904;8.110;2024-01-15T00:18:37;-1.80;99.90
21772;DHT22;11047;47.904;8.110;2024-01-15T00:21:04;-2.30;99.90
21772;DHT22;11047;47.904;8.110;2024-01-15T00:23:31;-2.00;99.90
21772;DHT22;11047;47.904;8.110;2024-01-15T00:25:58;-2.40;99.90
21772;DHT22;11047;47.904;8.110;2024-01-15T00:28:25;-1.30;99.90
21772;DHT22;11047;47.904;8.110;2024-01-15T00:30:51;-1.50;99.90
21772;DHT22;11047;47.904;8.110;2024-01-15T00:33:20;-1.30;99.90
21772;DHT22;11047;47.904;8.110;2024-01-15T00:35:46;-1.60;99.90
21772;DHT22;11047;47.904;8.110;2024-01-15T00:38:13;-2.40;99.90
21772;DHT22;11047;47.904;8.110;2024-01-15T00:40:40;-1.60;99.90
21772;DHT22;11047;47.904;8.110;2024-01-15T00:43:07;-2.60;99.90
21772;DHT22;11047;47.904;8.110;2024-01-15T00:45:34;-2.10;99.90
21772;DHT22;11047;47.904;8.110;2024-01-15T00:48:00;-2.60;99.90
21772;DHT22;11047;47.904;8.110;2024-01-15T00:50:29;-1.60;99.90
21772;DHT22;11047;47.904;8.110;2024-01-15T00:52:55;-2.50;99.90
21772;DHT22;11047;47.904;8.110;2024-01-15T00:55:22;-2.20;99.90
21772;DHT22;11047;47.904;8.110;2024-01-15T00:57:49;-2.70;99.90
21772;DHT22;11047;47.904;8.110;2024-01-15T01:00:16;-1.80;99.90
21772;DHT22;11047;47.904;8.110;2024-01-15T01:02:43;-2.90;99.90
21772;DHT22;11047;47.904;8.110;2024-01-15T01:05:10;-2.40;99.90
21772;DHT22;11047;47.904;8.110;2024-01-15T01:07:38;-2.80;99.90
21772;DHT22;11047;47.904;8.110;2024-01-15T01:10:05;-2.60;99.90
21772;DHT22;11047;47.904;8.110;2024-01-15T01:12:32;-2.80;99.90
21772;DHT22;11047;47.904;8.110;2024-01-15T01:14:58;-1.80;99.90
21772;DHT22;11047;47.904;8.110;2024-01-15T01:17:25;-2.20;99.90
21772;DHT22;11047;47.904;8.110;2024-01-15T01:19:52;-2.70;99.90
21772;DHT22;11047;47.904;8.110;2024-01-15T01:22:19;-2.70;99.90
21772;DHT22;11047;47.904;8.110;2024-01-15T01:24:47;-1.90;99.90
21772;DHT22;11047;47.904;8.110;2024-01-15T01:27:14;-1.70;99.90
21772;DHT22;11047;47.904;8.110;2024-01-15T01:29:40;-2.20;99.90
21772;DHT22;11047;47.904;8.110;2024-01-15T01:32:07;-1.50;99.90
21772;DHT22;11047;47.904;8.110;2024-01-15T01:34:39;-2.60;99.90
21772;DHT22;11047;47.904;8.110;2024-01-15T01:37:06;-2.10;99.90
21772;DHT22;11047;47.904;8.110;2024-01-15T01:39:33;-2.00;99.90
21772;DHT22;11047;47.904;8.110;2024-01-15T01:42:02;-2.40;99.90
21772;DHT22;11047;47.904;8.110;2024-01-15T01:44:28;-2.90;99.90
21772;DHT22;11047;47.904;8.110;2024-01-15T01:46:55;-2.20;99.90
21772;DHT22;11047;47.904;8.110;2024-01-15T01:49:22;-2.50;99.90
21772;DHT22;11047;47.904;8.110;2024-01-15T01:51:50;-2.60;99.90
21772;DHT22;11047;47.904;8.110;2024-01-15T01:54:18;-2.60;99.90
21772;DHT22;11047;47.904;8.110;2024-01-15T01:56:45;-2.40;99.90
21772;DHT22;11047;47.904;8.110;2024-01-15T01:59:15;-2.40;99.90
21772;DHT22;11047;47.904;8.110;2024-01-15T02:01:41;-1.90;99.90
21772;DHT22;11047;47.904;8.110;2024-01-15T02:04:09;-2.50;99.90
21772;DHT22;11047;47.904;8.110;2024-01-15T02:06:36;-2.50;99.90
21772;DHT22;11047;47.904;8.110;2024-01-15T02:09:03;-1.50;99.90
21772;DHT22;11047;47.904;8.110;2024-01-15T02:11:30;-2.40;99.90
21772;DHT22;11047;47.904;8.110;2024-01-15T02:13:57;-2.40;99.90
21772;DHT22;11047;47.904;8.110;2024-01-15T02:16:25;-2.40;99.90
21772;DHT22;11047;47.904;8.110;2024-01-15T02:18:52;-2.40;99.90
21772;DHT22;11047;47.904;8.110;2024-01-15T02:21:19;-1.10;99.90
21772;DHT22;11047;47.904;8.110;2024-01-15T02:23:47;-2.30;99.90
21772;DHT22;11047;47.904;8.110;2024-01-15T02:26:13;-1.90;99.90
21772;DHT22;11047;47.904;8.110;2024-01-15T02:28:42;-1.50;99.90
21772;DHT22;11047;47.904;8.110;2024-01-15T02:31:09;-1.40;99.90
21772;DHT22;11047;47.904;8.110;2024-01-15T02:33:36;-1.20;99.90
21772;DHT22;11047;47.904;8.110;2024-01-15T02:36:03;-1.40;99.90
21772;DHT22;11047;47.904;8.110;2024-01-15T02:38:30;-2.00;99.90
21772;DHT22;11047;47.904;8.110;2024-01-15T02:40:58;-1.50;99.90
21772;DHT22;11047;47.904;8.110;2024-01-15T02:43:25;-1.80;99.90
21772;DHT22;11047;47.904;8.110;2024-01-15T02:45:52;-1.10;99.90
21772;DHT22;11047;47.904;8.110;2024-01-15T02:48:19;-1.40;99.90
21772;DHT22;11047;47.904;8.110;2024-01-15T02:50:46;-1.70;99.90
21772;DHT22;11047;47.904;8.110;2024-01-15T02:53:12;-1.00;99.90
21772;DHT22;11047;47.904;8.110;2024-01-15T02:55:39;-1.70;99.90
21772;DHT22;11047;47.904;8.110;2024-01-15T02:58:07;-1.70;99.90
21772;DHT22;11047;47.904;8.110;2024-01-15T03:00:34;-1.60;99.90
21772;DHT22;11047;47.904;8.110;2024-01-15T03:03:01;-1.70;99.90
21772;DHT22;11047;47.904;8.110;2024-01-15T03:05:28;-2.40;99.90
21772;DHT22;11047;47.904;8.110;2024-01-15T03:07:55;-1.30;99.90
21772;DHT22;11047;47.904;8.110;2024-01-15T03:10:21;-0.70;99.90
21772;DHT22;11047;47.904;8.110;2024-01-15T03:12:48;-0.60;99.90
21772;DHT22;11047;47.904;8.110;2024-01-15T03:15:16;-1.80;99.90
21772;DHT22;11047;47.904;8.110;2024-01-15T03:17:43;-1.70;99.90
21772;DHT22;11047;47.904;8.110;2024-01-15T03:20:11;-0.60;99.90
21772;DHT22;11047;47.904;8.110;2024-01-15T03:22:37;-1.70;99.90
21772;DHT22;11047;47.904;8.110;2024-01-15T03:25:05;-0.60;99.90
21772;DHT22;11047;47.904;8.110;2024-01-15T03:27:32;-1.60;99.90
21772;DHT22;11047;47.904;8.110;2024-01-15T03:29:59;-1.10;99.90
21772;DHT22;11047;47.904;8.110;2024-01-15T03:32:29;-1.50;99.90
21772;DHT22;11047;47.904;8.110;2024-01-15T03:34:55;-1.60;99.90
21772;DHT22;11047;47.904;8.110;2024-01-15T03:37:22;-1.50;99.90
21772;DHT22;11047;47.904;8.110;2024-01-15T03:39:49;-1.10;99.90
21772;DHT22;11047;47.904;8.110;2024-01-15T03:42:16;-1.50;99.90
21772;DHT22;11047;47.904;8.110;2024-01-15T03:44:43;-0.40;99.90
21772;DHT22;11047;47.904;8.110;2024-01-15T03:47:09;-1.60;99.90
21772;DHT22;11047;47.904;8.110;2024-01-15T03:49:38;-1.50;99.90
21772;DHT22;11047;47.904;8.110;2024-01-15T03:52:05;-0.70;99.90
21772;DHT22;11047;47.904;8.110;2024-01-15T03:54:31;-1.50;99.90
21772;DHT22;11047;47.904;8.110;2024-01-15T03:56:58;-1.00;99.90
21772;DHT22;11047;47.904;8.110;2024-01-15T03:59:26;-0.60;99.90
21772;DHT22;11047;47.904;8.110;2024-01-15T04:01:53;-0.70;99.90
21772;DHT22;11047;47.904;8.110;2024-01-15T04:04:20;-0.40;99.90
21772;DHT22;11047;47.904;8.110;2024-01-15T04:06:48;-1.70;99.90
21772;DHT22;11047;47.904;8.110;2024-01-15T04:09:14;-0.60;99.90
21772;DHT22;11047;47.904;8.110;2024-01-15T04:11:41;-1.20;99.90
21772;DHT22;11047;47.904;8.110;2024-01-15T04:14:08;-1.60;99.90
21772;DHT22;11047;47.904;8.110;2024-01-15T04:16:35;-1.20;99.90
21772;DHT22;11047;47.904;8.110;2024-01-15T04:19:03;-1.70;99.90
21772;DHT22;11047;47.904;8.110;2024-01-15T04:21:30;-1.10;99.90
21772;DHT22;11047;47.904;8.110;2024-01-15T04:23:58;-0.40;99.90
21772;DHT22;11047;47.904;8.110;2024-01-15T04:26:27;-1.40;99.90
21772;DHT22;11047;47.904;8.110;2024-01-15T04:28:54;-1.60;99.90
21772;DHT22;11047;47.904;8.110;2024-01-15T04:31:23;-1.80;99.90
21772;DHT22;11047;47.904;8.110;2024-01-15T04:33:52;-1.60;99.90
21772;DHT22;11047;47.904;8.110;2024-01-15T04:36:19;-1.40;99.90
21772;DHT22;11047;47.904;8.110;2024-01-15T04:38:45;-1.60;99.90
21772;DHT22;11047;47.904;8.110;2024-01-15T04:41:24;-1.10;99.90
21772;DHT22;11047;47.904;8.110;2024-01-15T04:43:54;-1.40;99.90
21772;DHT22;11047;47.904;8.110;2024-01-15T04:46:20;-1.60;99.90
21772;DHT22;11047;47.904;8.110;2024-01-15T04:48:47;-1.60;99.90
21772;DHT22;11047;47.904;8.110;2024-01-15T04:51:14;-1.20;99.90
21772;DHT22;11047;47.904;8.110;2024-01-15T04:53:41;-1.30;99.90
21772;DHT22;11047;47.904;8.110;2024-01-15T04:56:08;-1.40;99.90
21772;DHT22;11047;47.904;8.110;2024-01-15T04:58:38;-1.50;99.90
21772;DHT22;11047;47.904;8.110;2024-01-15T05:01:07;-1.00;99.90
21772;DHT22;11047;47.904;8.110;2024-01-15T05:03:37;-1.60;99.90
21772;DHT22;11047;47.904;8.110;2024-01-15T05:06:12;-1.60;99.90
21772;DHT22;11047;47.904;8.110;2024-01-15T05:08:39;-1.70;99.90
21772;DHT22;11047;47.904;8.110;2024-01-15T05:11:09;-0.80;99.90
21772;DHT22;11047;47.904;8.110;2024-01-15T05:13:38;-1.30;99.90
21772;DHT22;11047;47.904;8.110;2024-01-15T05:16:08;-1.50;99.90
21772;DHT22;11047;47.904;8.110;2024-01-15T05:18:41;-1.70;99.90
21772;DHT22;11047;47.904;8.110;2024-01-15T05:21:16;-1.40;99.90
21772;DHT22;11047;47.904;8.110;2024-01-15T05:23:47;-2.00;99.90
21772;DHT22;11047;47.904;8.110;2024-01-15T05:26:14;-2.60;99.90
21772;DHT22;11047;47.904;8.110;2024-01-15T05:28:47;-1.50;99.90
21772;DHT22;11047;47.904;8.110;2024-01-15T05:31:14;-1.80;99.90
21772;DHT22;11047;47.904;8.110;2024-01-15T05:33:43;-1.90;99.90
21772;DHT22;11047;47.904;8.110;2024-01-15T05:36:10;-1.90;99.90
21772;DHT22;11047;47.904;8.110;2024-01-15T05:38:37;-2.20;99.90
21772;DHT22;11047;47.904;8.110;2024-01-15T05:41:09;-2.00;99.90
21772;DHT22;11047;47.904;8.110;2024-01-15T05:43:36;-2.30;99.90
21772;DHT22;11047;47.904;8.110;2024-01-15T05:46:05;-2.50;99.90
21772;DHT22;11047;47.904;8.110;2024-01-15T05:48:31;-2.10;99.90
21772;DHT22;11047;47.904;8.110;2024-01-15T05:50:58;-1.80;99.90
21772;DHT22;11047;47.904;8.110;2024-01-15T05:53:25;-1.90;99.90
21772;DHT22;11047;47.904;8.110;2024-01-15T05:55:52;-2.20;99.90
21772;DHT22;11047;47.904;8.110;2024-01-15T05:58:19;-1.50;99.90
21772;DHT22;11047;47.904;8.110;2024-01-15T06:00:46;-2.40;99.90
21772;DHT22;11047;47.904;8.110;2024-01-15T06:03:16;-2.50;99.90
21772;DHT22;11047;47.904;8.110;2024-01-15T06:05:43;-2.20;99.90
21772;DHT22;11047;47.904;8.110;2024-01-15T06:08:10;-1.60;99.90
21772;DHT22;11047;47.904;8.110;2024-01-15T06:10:37;-1.70;99.90
21772;DHT22;11047;47.904;8.110;2024-01-15T06:13:03;-2.00;99.90
21772;DHT22;11047;47.904;8.110;2024-01-15T06:15:30;-3.20;99.90
21772;DHT22;11047;47.904;8.110;2024-01-15T06:17:57;-2.20;99.90
21772;DHT22;11047;47.904;8.110;2024-01-15T06:20:26;-2.20;99.90
21772;DHT22;11047;47.904;8.110;2024-01-15T06:22:52;-2.30;99.90
21772;DHT22;11047;47.904;8.110;2024-01-15T06:25:19;-2.40;99.90
21772;DHT22;11047;47.904;8.110;2024-01-15T06:27:46;-2.40;99.90
21772;DHT22;11047;47.904;8.110;2024-01-15T06:30:13;-2.40;99.90
21772;DHT22;11047;47.904;8.110;2024-01-15T06:32:40;-2.40;99.90
21772;DHT22;11047;47.904;8.110;2024-01-15T06:35:09;-2.00;99.90
21772;DHT22;11047;47.904;8.110;2024-01-15T06:37:40;-2.40;99.90
21772;DHT22;11047;47.904;8.110;2024-01-15T06:40:07;-2.10;99.90
21772;DHT22;11047;47.904;8.110;2024-01-15T06:42:35;-2.30;99.90
21772;DHT22;11047;47.904;8.110;2024-01-15T06:45:02;-2.50;99.90
21772;DHT22;11047;47.904;8.110;2024-01-15T06:47:35;-2.20;99.90
21772;DHT22;11047;47.904;8.110;2024-01-15T06:50:05;-2.20;99.90
21772;DHT22;11047;47.904;8.110;2024-01-15T06:52:32;-2.10;99.90
21772;DHT22;11047;47.904;8.110;2024-01-15T06:55:00;-2.20;99.90
21772;DHT22;11047;47.904;8.110;2024-01-15T06:57:31;-1.60;99.90
21772;DHT22;11047;47.904;8.110;2024-01-15T06:59:58;-1.00;99.90
21772;DHT22;11047;47.904;8.110;2024-01-15T07:02:30;-1.20;99.90
21772;DHT22;11047;47.904;8.110;2024-01-15T07:04:57;-2.20;99.90
21772;DHT22;11047;47.904;8.110;2024-01-15T07:07:24;-1.80;99.90
21772;DHT22;11047;47.904;8.110;2024-01-15T07:09:54;-1.30;99.90
21772;DHT22;11047;47.904;8.110;2024-01-15T07:12:25;-1.80;99.90
21772;DHT22;11047;47.904;8.110;2024-01-15T07:14:51;-2.30;99.90
21772;DHT22;11047;47.904;8.110;2024-01-15T07:17:18;-1.80;99.90
21772;DHT22;11047;47.904;8.110;2024-01-15T07:19:46;-1.00;99.90
21772;DHT22;11047;47.904;8.110;2024-01-15T07:22:12;-2.20;99.90
21772;DHT22;11047;47.904;8.110;2024-01-15T07:24:40;-2.20;99.90
21772;DHT22;11047;47.904;8.110;2024-01-15T07:27:07;-1.90;99.90
21772;DHT22;11047;47.904;8.110;2024-01-15T07:29:35;-2.30;99.90
21772;DHT22;11047;47.904;8.110;2024-01-15T07:32:05;-1.70;99.90
21772;DHT22;11047;47.904;8.110;2024-01-15T07:34:39;-2.20;99.90
21772;DHT22;11047;47.904;8.110;2024-01-15T07:39:54;-2.10;99.90
21772;DHT22;11047;47.904;8.110;2024-01-15T07:42:20;-1.70;99.90
21772;DHT22;11047;47.904;8.110;2024-01-15T07:44:48;-2.20;99.90
21772;DHT22;11047;47.904;8.110;2024-01-15T07:47:16;-1.90;99.90
21772;DHT22;11047;47.904;8.110;2024-01-15T07:49:43;-2.50;99.90
21772;DHT22;11047;47.904;8.110;2024-01-15T07:52:16;-2.20;99.90
21772;DHT22;11047;47.904;8.110;2024-01-15T07:54:43;-1.00;99.90
21772;DHT22;11047;47.904;8.110;2024-01-15T07:57:10;-1.40;99.90
21772;DHT22;11047;47.904;8.110;2024-01-15T07:59:36;-1.70;99.90
21772;DHT22;11047;47.904;8.110;2024-01-15T08:02:05;-2.70;99.90
21772;DHT22;11047;47.904;8.110;2024-01-15T08:04:32;-1.40;99.90
21772;DHT22;11047;47.904;8.110;2024-01-15T08:06:58;-1.40;99.90
21772;DHT22;11047;47.904;8.110;2024-01-15T08:09:25;-1.30;99.90
21772;DHT22;11047;47.904;8.110;2024-01-15T08:11:55;-1.60;99.90
21772;DHT22;11047;47.904;8.110;2024-01-15T08:14:23;-1.70;99.90
21772;DHT22;11047;47.904;8.110;2024-01-15T08:16:50;-2.10;99.90
21772;DHT22;11047;47.904;8.110;2024-01-15T08:19:18;-1.70;99.90
21772;DHT22;11047;47.904;8.110;2024-01-15T08:21:48;-2.20;99.90
21772;DHT22;11047;47.904;8.110;2024-01-15T08:24:18;-1.70;99.90
21772;DHT22;11047;47.904;8.110;2024-01-15T08:26:45;-1.70;99.90
21772;DHT22;11047;47.904;8.110;2024-01-15T08:29:11;-2.10;99.90
21772;DHT22;11047;47.904;8.110;2024-01-15T08:31:39;-0.90;99.90
21772;DHT22;11047;47.904;8.110;2024-01-15T08:34:05;-1.50;99.90
21772;DHT22;11047;47.904;8.110;2024-01-15T08:36:38;-0.70;99.90
21772;DHT22;11047;47.904;8.110;2024-01-15T08:39:06;-1.50;99.90
21772;DHT22;11047;47.904;8.110;2024-01-15T08:41:34;-1.40;99.90
21772;DHT22;11047;47.904;8.110;2024-01-15T08:44:01;-0.60;99.90
21772;DHT22;11047;47.904;8.110;2024-01-15T08:46:28;-1.00;99.90
21772;DHT22;11047;47.904;8.110;2024-01-15T08:48:55;-1.50;99.90
21772;DHT22;11047;47.904;8.110;2024-01-15T08:51:21;-1.40;99.90
21772;DHT22;11047;47.904;8.110;2024-01-15T08:53:50;-1.40;99.90
21772;DHT22;11047;47.904;8.110;2024-01-15T08:56:16;-1.30;99.90
21772;DHT22;11047;47.904;8.110;2024-01-15T08:58:43;-1.50;99.90
21772;DHT22;11047;47.904;8.110;2024-01-15T09:01:11;-1.40;99.90
21772;DHT22;11047;47.904;8.110;2024-01-15T09:03:38;-1.50;99.90
21772;DHT22;11047;47.904;8.110;2024-01-15T09:06:07;-0.40;99.90
21772;DHT22;11047;47.904;8.110;2024-01-15T09:08:34;-0.60;99.90
21772;DHT22;11047;47.904;8.110;2024-01-15T09:11:03;-1.40;99.90
21772;DHT22;11047;47.904;8.110;2024-01-15T09:13:30;-1.40;99.90
21772;DHT22;11047;47.904;8.110;2024-01-15T09:15:58;-1.40;99.90
21772;DHT22;11047;47.904;8.110;2024-01-15T09:18:24;-0.70;99.90
21772;DHT22;11047;47.904;8.110;2024-01-15T09:20:51;-1.30;99.90
21772;DHT22;11047;47.904;8.110;2024-01-15T09:23:18;-1.40;99.90
21772;DHT22;11047;47.904;8.110;2024-01-15T09:25:45;-1.00;99.90
21772;DHT22;11047;47.904;8.110;2024-01-15T09:28:14;-1.20;99.90
21772;DHT22;11047;47.904;8.110;2024-01-15T09:30:41;-1.00;99.90
21772;DHT22;11047;47.904;8.110;2024-01-15T09:33:08;-0.60;99.90
21772;DHT22;11047;47.904;8.110;2024-01-15T09:35:35;-1.40;99.90
21772;DHT22;11047;47.904;8.110;2024-01-15T09:38:02;-0.80;99.90
21772;DHT22;11047;47.904;8.110;2024-01-15T09:40:30;-1.40;99.90
21772;DHT22;11047;47.904;8.110;2024-01-15T09:42:57;-1.70;99.90
21772;DHT22;11047;47.904;8.110;2024-01-15T09:45:26;-1.40;99.90
21772;DHT22;11047;47.904;8.110;2024-01-15T09:47:53;-1.00;99.90
21772;DHT22;11047;47.904;8.110;2024-01-15T09:50:20;-1.30;99.90
21772;DHT22;11047;47.904;8.110;2024-01-15T09:52:47;-0.90;99.90
21772;DHT22;11047;47.904;8.110;2024-01-15T09:55:14;-1.20;99.90
21772;DHT22;11047;47.904;8.110;2024-01-15T09:57:42;-0.50;99.90
21772;DHT22;11047;47.904;8.110;2024-01-15T10:00:10;-1.80;99.90
21772;DHT22;11047;47.904;8.110;2024-01-15T10:02:38;-0.90;99.90
21772;DHT22;11047;47.904;8.110;2024-01-15T10:05:06;0.00;99.90
21772;DHT22;11047;47.904;8.110;2024-01-15T10:07:33;-0.70;99.90
21772;DHT22;11047;47.904;8.110;2024-01-15T10:10:01;-0.50;99.90
21772;DHT22;11047;47.904;8.110;2024-01-15T10:12:28;-0.60;99.90
21772;DHT22;11047;47.904;8.110;2024-01-15T10:14:55;-0.60;99.90
21772;DHT22;11047;47.904;8.110;2024-01-15T10:17:23;-1.20;99.90
21772;DHT22;11047;47.904;8.110;2024-01-15T10:19:51;0.40;99.90
21772;DHT22;11047;47.904;8.110;2024-01-15T10:22:18;-0.20;99.90
21772;DHT22;11047;47.904;8.110;2024-01-15T10:24:45;0.60;99.90
21772;DHT22;11047;47.904;8.110;2024-01-15T10:27:13;0.60;99.90
21772;DHT22;11047;47.904;8.110;2024-01-15T10:29:40;0.40;99.90
21772;DHT22;11047;47.904;8.110;2024-01-15T10:32:07;0.30;99.90
21772;DHT22;11047;47.904;8.110;2024-01-15T10:34:37;0.40;99.90
21772;DHT22;11047;47.904;8.110;2024-01-15T10:37:05;0.50;99.90
21772;DHT22;11047;47.904;8.110;2024-01-15T10:39:33;0.40;99.90
21772;DHT22;11047;47.904;8.110;2024-01-15T10:42:00;0.50;99.90
21772;DHT22;11047;47.904;8.110;2024-01-15T10:44:27;0.60;99.90
21772;DHT22;11047;47.904;8.110;2024-01-15T10:46:54;0.50;99.90
21772;DHT22;11047;47.904;8.110;2024-01-15T10:49:42;0.50;99.90
21772;DHT22;11047;47.904;8.110;2024-01-15T10:52:40;0.80;99.90
21772;DHT22;11047;47.904;8.110;2024-01-15T10:55:17;0.90;99.90
21772;DHT22;11047;47.904;8.110;2024-01-15T10:58:00;0.60;99.90
21772;DHT22;11047;47.904;8.110;2024-01-15T11:00:32;0.60;99.90
21772;DHT22;11047;47.904;8.110;2024-01-15T11:03:14;0.50;99.90
21772;DHT22;11047;47.904;8.110;2024-01-15T11:05:44;0.50;99.90
21772;DHT22;11047;47.904;8.110;2024-01-15T11:08:55;0.60;99.90
21772;DHT22;11047;47.904;8.110;2024-01-15T11:12:06;0.40;99.90
21772;DHT22;11047;47.904;8.110;2024-01-15T11:15:00;0.30;99.90
21772;DHT22;11047;47.904;8.110;2024-01-15T11:18:03;0.00;99.90
21772;DHT22;11047;47.904;8.110;2024-01-15T11:23:45;0.70;99.90
21772;DHT22;11047;47.904;8.110;2024-01-15T11:26:33;-0.10;99.90
21772;DHT22;11047;47.904;8.110;2024-01-15T11:30:03;-0.10;99.90
21772;DHT22;11047;47.904;8.110;2024-01-15T11:32:42;-0.20;99.90
21772;DHT22;11047;47.904;8.110;2024-01-15T11:35:26;-0.10;99.90
21772;DHT22;11047;47.904;8.110;2024-01-15T11:38:28;-0.20;99.90
21772;DHT22;11047;47.904;8.110;2024-01-15T11:41:29;-0.10;99.90
21772;DHT22;11047;47.904;8.110;2024-01-15T11:44:21;-0.20;99.90
21772;DHT22;11047;47.904;8.110;2024-01-15T11:47:01;0.40;99.90
21772;DHT22;11047;47.904;8.110;2024-01-15T11:55:33;-0.30;99.90
21772;DHT22;11047;47.904;8.110;2024-01-15T12:01:14;-0.40;99.90
21772;DHT22;11047;47.904;8.110;2024-01-15T12:04:04;0.60;99.90
21772;DHT22;11047;47.904;8.110;2024-01-15T12:07:12;-0.50;99.90
21772;DHT22;11047;47.904;8.110;2024-01-15T12:09:47;-0.50;99.90
21772;DHT22;11047;47.904;8.110;2024-01-15T12:12:36;0.50;99.90
21772;DHT22;11047;47.904;8.110;2024-01-15T12:15:48;-1.00;99.90
21772;DHT22;11047;47.904;8.110;2024-01-15T12:18:29;-0.20;99.90
21772;DHT22;11047;47.904;8.110;2024-01-15T12:21:21;0.30;99.90
21772;DHT22;11047;47.904;8.110;2024-01-15T12:24:06;-0.70;99.90
21772;DHT22;11047;47.904;8.110;2024-01-15T12:26:34;-0.80;99.90
21772;DHT22;11047;47.904;8.110;2024-01-15T12:29:05;-1.50;99.90
21772;DHT22;11047;47.904;8.110;2024-01-15T12:31:32;-0.90;99.90
21772;DHT22;11047;47.904;8.110;2024-01-15T12:34:10;-0.80;99.90
21772;DHT22;11047;47.904;8.110;2024-01-15T12:36:37;-0.60;99.90
21772;DHT22;11047;47.904;8.110;2024-01-15T12:39:04;-0.70;99.90
21772;DHT22;11047;47.904;8.110;2024-01-15T12:41:39;-0.70;99.90
21772;DHT22;11047;47.904;8.110;2024-01-15T12:44:16;-0.40;99.90
21772;DHT22;11047;47.904;8.110;2024-01-15T12:46:45;0.20;99.90
21772;DHT22;11047;47.904;8.110;2024-01-15T12:49:20;0.10;99.90
21772;DHT22;11047;47.904;8.110;2024-01-15T12:51:52;-0.30;99.90
21772;DHT22;11047;47.904;8.110;2024-01-15T12:54:18;-0.30;99.90
21772;DHT22;11047;47.904;8.110;2024-01-15T12:56:45;-0.10;99.90
21772;DHT22;11047;47.904;8.110;2024-01-15T12:59:15;-0.30;99.90
21772;DHT22;11047;47.904;8.110;2024-01-15T13:01:42;0.50;99.90
21772;DHT22;11047;47.904;8.110;2024-01-15T13:04:09;-0.30;99.90
21772;DHT22;11047;47.904;8.110;2024-01-15T13:06:38;-0.30;99.90
21772;DHT22;11047;47.904;8.110;2024-01-15T13:09:07;0.20;99.90
21772;DHT22;11047;47.904;8.110;2024-01-15T13:11:35;0.80;99.90
21772;DHT22;11047;47.904;8.110;2024-01-15T13:14:06;-0.30;99.90
21772;DHT22;11047;47.904;8.110;2024-01-15T13:16:35;0.30;99.90
21772;DHT22;11047;47.904;8.110;2024-01-15T13:19:02;-0.10;99.90
21772;DHT22;11047;47.904;8.110;2024-01-15T13:21:29;0.70;99.90
21772;DHT22;11047;47.904;8.110;2024-01-15T13:23:57;0.00;99.90
21772;DHT22;11047;47.904;8.110;2024-01-15T13:26:24;0.50;99.90
21772;DHT22;11047;47.904;8.110;2024-01-15T13:28:52;-0.20;99.90
21772;DHT22;11047;47.904;8.110;2024-01-15T13:31:20;-0.20;99.90
21772;DHT22;11047;47.904;8.110;2024-01-15T13:33:47;0.40;99.90
21772;DHT22;11047;47.904;8.110;2024-01-15T13:36:14;-0.10;99.90
21772;DHT22;11047;47.904;8.110;2024-01-15T13:38:40;0.30;99.90
21772;DHT22;11047;47.904;8.110;2024-01-15T13:41:10;0.30;99.90
21772;DHT22;11047;47.904;8.110;2024-01-15T13:43:37;-0.70;99.90
21772;DHT22;11047;47.904;8.110;2024-01-15T13:46:04;-0.10;99.90
21772;DHT22;11047;47.904;8.110;2024-01-15T13:48:31;-0.80;99.90
21772;DHT22;11047;47.904;8.110;2024-01-15T13:50:58;-0.90;99.90
21772;DHT22;11047;47.904;8.110;2024-01-15T13:53:26;-0.40;99.90
21772;DHT22;11047;47.904;8.110;2024-01-15T13:55:59;-1.00;99.90
21772;DHT22;11047;47.904;8.110;2024-01-15T13:58:27;-1.20;99.90
21772;DHT22;11047;47.904;8.110;2024-01-15T14:00:54;-0.40;99.90
21772;DHT22;11047;47.904;8.110;2024-01-15T14:03:21;-0.10;99.90
21772;DHT22;11047;47.904;8.110;2024-01-15T14:05:49;-0.70;99.90
21772;DHT22;11047;47.904;8.110;2024-01-15T14:08:16;0.00;99.90
21772;DHT22;11047;47.904;8.110;2024-01-15T14:10:45;-0.40;99.90
21772;DHT22;11047;47.904;8.110;2024-01-15T14:13:16;-0.20;99.90
21772;DHT22;11047;47.904;8.110;2024-01-15T14:15:44;-1.30;99.90
21772;DHT22;11047;47.904;8.110;2024-01-15T14:18:11;-0.20;99.90
21772;DHT22;11047;47.904;8.110;2024-01-15T14:20:37;-1.40;99.90
21772;DHT22;11047;47.904;8.110;2024-01-15T14:23:04;-0.60;99.90
21772;DHT22;11047;47.904;8.110;2024-01-15T14:25:31;-2.10;99.90
21772;DHT22;11047;47.904;8.110;2024-01-15T14:27:59;-1.30;99.90
21772;DHT22;11047;47.904;8.110;2024-01-15T14:30:27;-1.30;99.90
21772;DHT22;11047;47.904;8.110;2024-01-15T14:32:55;-1.30;99.90
21772;DHT22;11047;47.904;8.110;2024-01-15T14:35:24;-1.20;99.90
21772;DHT22;11047;47.904;8.110;2024-01-15T14:37:51;-0.50;99.90
21772;DHT22;11047;47.904;8.110;2024-01-15T14:40:18;-1.70;99.90
21772;DHT22;11047;47.904;8.110;2024-01-15T14:42:44;-1.00;99.90
21772;DHT22;11047;47.904;8.110;2024-01-15T14:45:15;-1.60;99.90
21772;DHT22;11047;47.904;8.110;2024-01-15T14:47:42;-1.50;99.90
21772;DHT22;11047;47.904;8.110;2024-01-15T14:50:11;-0.50;99.90
21772;DHT22;11047;47.904;8.110;2024-01-15T14:52:41;-1.70;99.90
21772;DHT22;11047;47.904;8.110;2024-01-15T14:55:10;-1.60;99.90
21772;DHT22;11047;47.904;8.110;2024-01-15T14:57:39;-1.70;99.90
21772;DHT22;11047;47.904;8.110;2024-01-15T15:00:06;-1.10;99.90
21772;DHT22;11047;47.904;8.110;2024-01-15T15:02:35;-1.50;99.90
21772;DHT22;11047;47.904;8.110;2024-01-15T15:05:02;-1.60;99.90
21772;DHT22;11047;47.904;8.110;2024-01-15T15:07:31;-1.60;99.90
21772;DHT22;11047;47.904;8.110;2024-01-15T15:09:59;-1.20;99.90
21772;DHT22;11047;47.904;8.110;2024-01-15T15:12:26;-2.20;99.90
21772;DHT22;11047;47.904;8.110;2024-01-15T15:14:53;-1.50;99.90
21772;DHT22;11047;47.904;8.110;2024-01-15T15:17:22;-0.70;99.90
21772;DHT22;11047;47.904;8.110;2024-01-15T15:19:49;-1.30;99.90
21772;DHT22;11047;47.904;8.110;2024-01-15T15:22:18;-1.70;99.90
21772;DHT22;11047;47.904;8.110;2024-01-15T15:24:47;-1.70;99.90
21772;DHT22;11047;47.904;8.110;2024-01-15T15:27:14;-0.70;99.90
21772;DHT22;11047;47.904;8.110;2024-01-15T15:29:40;-0.50;99.90
21772;DHT22;11047;47.904;8.110;2024-01-15T15:32:15;-1.40;99.90
21772;DHT22;11047;47.904;8.110;2024-01-15T15:38:03;-1.90;99.90
21772;DHT22;11047;47.904;8.110;2024-01-15T15:40:41;-1.70;99.90
21772;DHT22;11047;47.904;8.110;2024-01-15T15:43:13;-1.80;99.90
21772;DHT22;11047;47.904;8.110;2024-01-15T15:45:49;-2.00;99.90
21772;DHT22;11047;47.904;8.110;2024-01-15T15:48:19;-0.60;99.90
21772;DHT22;11047;47.904;8.110;2024-01-15T15:50:46;-1.90;99.90
21772;DHT22;11047;47.904;8.110;2024-01-15T15:53:13;-1.60;99.90
21772;DHT22;11047;47.904;8.110;2024-01-15T15:55:51;-1.80;99.90
21772;DHT22;11047;47.904;8.110;2024-01-15T15:58:21;-1.70;99.90
21772;DHT22;11047;47.904;8.110;2024-01-15T16:00:48;-1.60;99.90
21772;DHT22;11047;47.904;8.110;2024-01-15T16:03:17;-1.40;99.90
21772;DHT22;11047;47.904;8.110;2024-01-15T16:05:46;-1.70;99.90